Whitleys Peak, Santa Catalina Island Weather observations

Data are for 10 minute period ending at time listed.
 Day   Time   Solar   Ave.   Ave.  Ave.  Vector    Max.   Stn.    Total
  of    of     Rad.   Air    Rel.  Wind   Wind     Wind   Baro.  Precip.
Year   Day            Temp.  Hum.  Speed  Dir.     Gust   Pres.         
2015   (PST)   W/m2    F      %     mph   deg.      mph    mb.     in.  
------------------------------------------------------------------------
 110    0:00    0.0    50   95.7     9    178.4    11.9    999.0   0.00  
 110    0:10    0.0    50   95.8     8    161.3    11.9    999.0   0.00  
 110    0:20    0.0    50   95.8     9    160.5    13.1    999.0   0.00  
 110    0:30    0.0    50   95.8     9    162.0    13.1    999.0   0.00  
 110    0:40    0.0    50   95.9     9    163.7    12.5    999.0   0.00  
 110    0:50    0.0    50   95.9     8    163.8    11.9    999.0   0.00  
 110    1:00    0.0    50   95.9     9    164.5    13.1    999.0   0.00  
 110    1:10    0.0    50   95.9    10    169.3    13.1    999.0   0.00  
 110    1:20    0.0    50   95.9    10    168.9    13.1    999.0   0.00  
 110    1:30    0.0    50   96.0     8    163.0    11.3    999.0   0.00  
 110    1:40    0.0    51   96.0     8    150.2    12.5    999.0   0.00  
 110    1:50    0.0    50   96.0     8    161.0    11.9    999.0   0.00  
 110    2:00    2.0    50   96.0     8    160.2    10.8    999.0   0.00  
 110    2:10    4.0    50   96.0     8    161.1    11.3    999.0   0.00  
 110    2:20    6.0    50   96.0     7    161.4     9.6    999.0   0.00  
 110    2:30    6.0    50   96.1     7    158.5    10.2    999.0   0.00  
 110    2:40    6.0    50   96.1     6    159.0     9.0    999.0   0.00  
 110    2:50    6.0    50   96.1     7    161.4     9.6    999.0   0.00  
 110    3:00    6.0    50   96.1     7    162.9    10.8    999.0   0.00  
 110    3:10    6.0    50   96.1     7    154.7     9.6    999.0   0.00  
 110    3:20    6.0    50   96.1     7    161.2     9.6    999.0   0.00  
 110    3:30    6.0    50   96.1     6    156.5    10.2    999.0   0.00  
 110    3:40    6.0    51   96.1     7    141.7    11.3    999.0   0.00  
 110    3:50    6.0    51   96.2     6    133.5    10.2    999.0   0.00  
 110    4:00    6.0    51   96.2     5    113.2     9.0    999.0   0.00  
 110    4:10    6.0    51   96.2     6    104.4     9.0    999.0   0.00  
 110    4:20    6.0    51   96.2     7     96.4    11.3    999.0   0.00  
 110    4:30    6.0    51   96.2     6     98.8     9.0    999.0   0.00  
 110    4:40    6.0    51   96.1     7     96.6     9.6    999.0   0.00  
 110    4:50    6.0    51   96.1     8    101.7    11.9    999.0   0.00  
 110    5:00    6.0    51   96.0     7     90.3    10.8    999.0   0.00  
 110    5:10    6.0    51   96.0     7     85.3    10.8    999.0   0.00  
 110    5:20    6.0    51   96.0     6     98.1     9.6    999.0   0.00  
 110    5:30    6.0    51   96.0     4    111.7     7.8    999.0   0.00  
 110    5:40    8.0    51   96.0     4    106.8     7.8    999.0   0.00  
 110    5:50   15.0    51   95.9     5    104.6     7.8    999.0   0.00  
 110    6:00   24.0    51   95.8     7     75.6    10.2    999.0   0.00  
 110    6:10   29.0    51   95.7     6     70.8     9.6    999.0   0.00  
 110    6:20   34.0    51   95.5     6     89.4     9.0    999.0   0.00  
 110    6:30   50.0    52   95.2     5     95.0     9.6    999.0   0.00  
 110    6:40   63.0    52   93.8     5    116.3     9.6    999.0   0.00  
 110    6:50   78.0    52   92.2     5    108.6    10.2    999.0   0.00  
 110    7:00   81.0    52   90.8     5     95.1     7.2    999.0   0.00  
 110    7:10   93.0    53   89.4     5    103.5     7.2    999.0   0.00  
 110    7:20  130.0    53   88.9     6     84.2     8.4    999.0   0.00  
 110    7:30  151.0    53   88.4     5     89.8     7.8    999.0   0.00  
 110    7:40  162.0    54   87.4     5     86.9     8.4    999.0   0.00  
 110    7:50  162.0    54   87.4     6     83.8     9.0    999.0   0.00  
 110    8:00  179.0    54   87.0     7     85.6     9.6    999.0   0.00  
 110    8:10  229.0    54   87.0     5     84.8     7.8    999.0   0.00  
 110    8:20  229.0    55   84.8     5     86.5     7.8    999.0   0.00  
 110    8:30  410.0    56   83.7     5     90.1     7.8    999.0   0.00  
 110    8:40  480.0    59   77.0     5     81.9    10.2    999.0   0.00  
 110    8:50  595.0    59   76.9     6     77.6     9.0    999.0   0.00  
 110    9:00  700.0    61   73.4     7     56.0     9.6    999.0   0.00  
 110    9:10  664.0    61   72.5     7     60.3     9.6    999.0   0.00  
 110    9:20  657.0    59   76.0     6     65.9    10.2    999.0   0.00  
 110    9:30  686.0    59   75.9     8     80.7    11.9    999.0   0.00  
 110    9:40  620.0    59   76.4     8     79.2    13.7    999.0   0.00  
 110    9:50  694.0    58   78.0     9     83.3    14.3    999.0   0.00  
 110   10:00  754.0    58   77.2     9     89.9    12.5    999.0   0.00  
 110   10:10  516.0    57   80.0     9     90.1    14.3    999.0   0.00  
 110   10:20  627.0    57   79.4    10     86.7    14.9    999.0   0.00  
 110   10:30  716.0    58   79.0    10     79.8    14.3    999.0   0.00  
 110   10:40  771.0    58   78.5    11     84.3    14.3    999.0   0.00  
 110   10:50  816.0    58   78.3    12     77.9    16.7    999.0   0.00  
 110   11:00  771.0    57   79.1    11     85.1    16.1    999.0   0.00  
 110   11:10  835.0    58   78.5     9     77.9    13.7    999.0   0.00  
 110   11:20  810.0    60   74.9     9     74.7    11.9    999.0   0.00  
 110   11:30  877.0    60   73.3     8     74.5    11.3    999.0   0.00  
 110   11:40  830.0    60   74.1     8     81.5    11.9    999.0   0.00  
 110   11:50  842.0    60   73.7     7     60.0    10.2    999.0   0.00  
 110   12:00  850.0    60   73.8     8     72.9    12.5    999.0   0.00  
 110   12:10  846.0    60   73.2     7     61.4    11.3    999.0   0.00  
 110   12:20  859.0    61   72.6     6     65.1     9.6    999.0   0.00  
 110   12:30  856.0    60   73.4     7     60.5    10.8    999.0   0.00  
 110   12:40  853.0    61   72.5     6     43.7     9.6    999.0   0.00  
 110   12:50  848.0    62   71.4     7     66.2    10.2    999.0   0.00  
 110   13:00  818.0    60   73.9     6     55.1     9.0    999.0   0.00  
 110   13:10  833.0    62   71.7     4     42.7     6.6    999.0   0.00  
 110   13:20  825.0    63   68.9     5    102.1    10.2    999.0   0.00  
 110   13:30  814.0    63   68.5     4    313.5     9.6    999.0   0.00  
 110   13:40  802.0    62   66.8     8    245.0    17.9    999.0   0.00  
 110   13:50  786.0    60   69.9    10    239.0    15.5    999.0   0.00  
 110   14:00  770.0    60   70.2    11    240.9    14.9    999.0   0.00  
 110   14:10  752.0    59   71.1    14    244.9    19.7    999.0   0.00  
 110   14:20  732.0    59   72.2    14    247.3    19.1    999.0   0.00  
 110   14:30  712.0    58   74.4    16    245.5    21.5    999.0   0.00  
 110   14:40  691.0    58   74.2    15    247.9    20.9    999.0   0.00  
 110   14:50  667.0    57   73.6    16    249.7    20.9    999.0   0.00  
 110   15:00  643.0    58   72.0    14    248.1    18.5    999.0   0.00  
 110   15:10  618.0    57   72.3    16    244.2    19.7    999.0   0.00  
 110   15:20  591.0    58   71.9    15    244.6    21.5    999.0   0.00  
 110   15:30  564.0    58   71.1    12    241.4    14.9    999.0   0.00  
 110   15:40  536.0    58   70.2    12    236.2    16.7    999.0   0.00  
 110   15:50  505.0    58   71.8    13    237.2    16.1    999.0   0.00  
 110   16:00  474.0    58   74.0    12    235.8    16.1    999.0   0.00  
 110   16:10  443.0    57   74.8    12    234.8    15.5    999.0   0.00  
 110   16:20  412.0    57   75.9    12    234.0    16.1    999.0   0.00  
 110   16:30  379.0    57   76.3    11    238.4    14.3    999.0   0.00  
 110   16:40  346.0    56   77.4    12    236.6    14.9    999.0   0.00  
 110   16:50  313.0    56   78.9    13    236.0    16.1    999.0   0.00  
 110   17:00  279.0    56   79.2    11    235.5    14.9    999.0   0.00  
 110   17:10  244.0    56   78.8    10    233.0    13.1    999.0   0.00  
 110   17:20  211.0    56   79.3    10    236.7    13.1    999.0   0.00  
 110   17:30  178.0    55   80.9    11    233.8    13.1    999.0   0.00  
 110   17:40  142.0    55   81.7    11    233.3    14.3    999.0   0.00  
 110   17:50  109.0    54   82.3    10    229.2    13.1    999.0   0.00  
 110   18:00   80.0    54   83.6    10    223.5    13.7    999.0   0.00  
 110   18:10   48.0    53   85.3    11    224.7    13.7    999.0   0.00  
 110   18:20   17.0    52   87.1    11    223.6    13.7    999.0   0.00  
 110   18:30    8.0    51   88.0    11    223.0    13.7    999.0   0.00  
 110   18:40    1.0    51   88.7    11    223.4    13.1    999.0   0.00  
 110   18:50    0.0    51   89.3    11    222.8    14.9    999.0   0.00  
 110   19:00    0.0    51   89.8    13    224.3    15.5    999.0   0.00  
 110   19:10    0.0    50   90.0    12    224.0    14.3    999.0   0.00  
 110   19:20    0.0    50   90.1    12    225.8    14.3    999.0   0.00  
 110   19:30    0.0    50   90.1    12    231.8    15.5    999.0   0.00  
 110   19:40    0.0    50   90.1    10    225.9    13.1    999.0   0.00  
 110   19:50    0.0    50   90.2    11    222.9    12.5    999.0   0.00  
 110   20:00    0.0    50   90.1     9    225.5    11.9    999.0   0.00  
 110   20:10    0.0    50   90.2    10    221.4    11.3    999.0   0.00  
 110   20:20    0.0    50   90.4     9    218.0    11.3    999.0   0.00  
 110   20:30    0.0    50   90.5    10    213.5    12.5    999.0   0.00  
 110   20:40    0.0    50   90.4    10    210.9    11.9    999.0   0.00  
 110   20:50    0.0    50   90.3    10    209.0    11.9    999.0   0.00  
 110   21:00    0.0    51   90.2    10    211.2    11.9    999.0   0.00  
 110   21:10    0.0    51   90.1     9    212.6     9.6    999.0   0.00  
 110   21:20    0.0    51   89.9     8    216.2    10.8    999.0   0.00  
 110   21:30    0.0    51   89.8     8    215.6    10.8    999.0   0.00  
 110   21:40    0.0    51   89.5     8    216.1    10.2    999.0   0.00  
 110   21:50    0.0    50   89.2     8    216.7    10.2    999.0   0.00  
 110   22:00    0.0    51   88.8     8    228.6    10.8    999.0   0.00  
 110   22:10    0.0    51   88.4     8    237.9    11.9    999.0   0.00  
 110   22:20    0.0    51   87.6    10    238.7    12.5    999.0   0.00  
 110   22:30    0.0    51   87.1    10    230.7    11.9    999.0   0.00  
 110   22:40    0.0    51   87.1     9    227.7    11.9    999.0   0.00  

Return to Whitleys Peak graphs page.


Western Regional Climate Center,wrcc@dri.edu